Nepaug, Connecticut
Current Conditions -  °F | °C
As of 5:51 PM on Thursday 20 Nov 2014 (Local Time) from KBDL Reporting Station
Clear Clear  
Wind Chill: 33°   Ceiling: Unl
Heat Index: 39°   Visibility: 10mi
Dew Point: 13°   Wind: 9mph
Humidity: 34%   Direction: 270°W
Pressure: 29.83"   Gusts: NA
Location:  41.8531°N, 73.0043°W
Report Text: KBDL 202251Z 27008KT 10SM CLR 04/M11 A2983 RMK AO2 SLP103 T00391106
Loading
Personal Weather Stations






























Interactive Weather Map New forecast layout! Learn more

10-Day Weather Forecast

Advertisements
Track Severe Weather on mobile